Time;durP1;ratioP1;P1;durP2;ratioP2;P2;SDS_P1;SDS_P2;PMS_P1;PMS_P2;Temp;Humidity;BMP_temperature;BMP_pressure;BME280_temperature;BME280_humidity;BME280_pressure;Samples;Min_cycle;Max_cycle;Signal;HPM_P1;HPM_P2
2022/04/19 04:09:36;;;;;;;;;;;;;;;10.35;61.70;96463.66;4238643;27;221949;-65
2022/04/19 04:11:38;;;;;;;;;;;;;;;10.40;60.83;96471.78;4231522;28;5664;-64
2022/04/19 04:13:40;;;;;;;;;;;;;;;10.56;60.04;96464.50;4231767;27;5086;-64
2022/04/19 04:15:41;;;;;;;;;;;;;;;10.61;60.01;96468.16;4231693;28;6337;-65
2022/04/19 04:17:43;;;;;;;;;;;;;;;10.60;60.61;96468.38;4231079;28;6413;-65
2022/04/19 04:19:45;;;;;;;;;;;;;;;10.70;59.51;96461.69;4231346;28;5775;-65
2022/04/19 04:21:47;;;;;;;;;;;;;;;10.71;59.43;96471.22;4230145;28;5687;-64
2022/04/19 04:23:48;;;;;;;;;;;;;;;10.71;59.38;96465.94;4213270;28;5701;-64
2022/04/19 04:25:50;;;;;;;;;;;;;;;10.76;58.79;96466.16;4231115;28;5881;-64
2022/04/19 04:27:51;;;;;;;;;;;;;;;10.78;58.83;96466.78;4231090;28;5671;-64
2022/04/19 04:29:53;;;;;;;;;;;;;;;10.78;59.23;96465.97;4230949;28;5841;-64
2022/04/19 04:31:55;;;;;;;;;;;;;;;10.77;59.14;96467.78;4214262;28;5812;-64
2022/04/19 04:33:57;;;;;;;;;;;;;;;10.81;58.80;96470.84;4219265;28;5675;-64
2022/04/19 04:35:58;;;;;;;;;;;;;;;10.80;58.74;96461.28;4231143;28;5684;-64
2022/04/19 04:38:00;;;;;;;;;;;;;;;10.82;58.62;96463.72;4231120;28;5758;-64
2022/04/19 04:40:03;;;;;;;;;;;;;;;10.78;58.59;96458.84;4231314;28;5680;-63
2022/04/19 04:42:05;;;;;;;;;;;;;;;10.83;58.04;96466.16;4231096;28;5889;-63
2022/04/19 04:44:06;;;;;;;;;;;;;;;10.78;58.59;96460.69;4231049;28;5660;-64
2022/04/19 04:51:02;;;;;;;;;;;;;;;10.58;59.74;96473.06;4178669;28;5691;-66
2022/04/19 04:53:04;;;;;;;;;;;;;;;10.54;59.33;96472.66;4162461;28;5872;-66
2022/04/19 04:55:07;;;;;;;;;;;;;;;10.51;59.59;96475.66;4178793;28;5712;-66
2022/04/19 04:57:09;;;;;;;;;;;;;;;10.49;59.65;96478.50;4162270;28;6365;-66
2022/04/19 04:59:10;;;;;;;;;;;;;;;10.49;59.36;96483.00;4178246;28;5719;-66
2022/04/19 05:01:13;;;;;;;;;;;;;;;10.48;59.87;96473.44;4178436;28;5683;-64
2022/04/19 05:03:14;;;;;;;;;;;;;;;10.47;60.03;96485.03;4179156;28;5791;-65
2022/04/19 05:05:16;;;;;;;;;;;;;;;10.48;59.70;96474.25;4162311;28;5773;-65
2022/04/19 05:07:18;;;;;;;;;;;;;;;10.51;59.38;96483.59;4178240;28;5696;-65
2022/04/19 05:09:24;;;;;;;;;;;;;;;10.49;59.97;96486.44;4173906;28;5737;-65
2022/04/19 05:11:28;;;;;;;;;;;;;;;10.50;59.22;96484.63;4167650;28;5697;-67
2022/04/19 05:13:30;;;;;;;;;;;;;;;10.41;59.11;96486.63;4150633;28;5808;-65
2022/04/19 05:15:31;;;;;;;;;;;;;;;10.42;59.26;96485.63;4167238;28;5689;-65
2022/04/19 05:17:34;;;;;;;;;;;;;;;10.43;59.03;96492.53;4167638;28;6852;-65
2022/04/19 05:19:35;;;;;;;;;;;;;;;10.50;59.00;96488.06;4168319;28;6861;-65
2022/04/19 05:21:38;;;;;;;;;;;;;;;10.40;60.15;96487.63;4181154;28;5824;-65
2022/04/19 05:23:39;;;;;;;;;;;;;;;10.33;60.58;96484.19;4176311;28;5681;-66
2022/04/19 05:25:41;;;;;;;;;;;;;;;10.39;59.95;96488.66;4172173;28;5708;-65
2022/04/19 05:27:43;;;;;;;;;;;;;;;10.32;60.26;96487.84;4213137;28;5720;-69
2022/04/19 05:29:44;;;;;;;;;;;;;;;10.30;60.22;96487.19;4218675;28;5735;-70
2022/04/19 05:31:46;;;;;;;;;;;;;;;10.19;60.06;96485.09;4219104;28;5680;-69
2022/04/19 05:33:48;;;;;;;;;;;;;;;10.28;59.74;96485.78;4219043;28;5679;-67
2022/04/19 05:35:51;;;;;;;;;;;;;;;10.39;59.41;96493.13;4219118;28;5664;-69
2022/04/19 05:37:53;;;;;;;;;;;;;;;10.46;59.49;96486.03;4221974;28;5085;-65
2022/04/19 05:39:55;;;;;;;;;;;;;;;10.49;60.23;96496.19;4223087;28;5124;-65
2022/04/19 05:41:57;;;;;;;;;;;;;;;10.46;59.61;96493.97;4206936;28;5701;-67
2022/04/19 05:43:58;;;;;;;;;;;;;;;10.46;59.53;96493.97;4213275;28;5863;-66
2022/04/19 05:46:00;;;;;;;;;;;;;;;10.37;60.50;96498.59;4212996;28;5716;-65
2022/04/19 05:48:02;;;;;;;;;;;;;;;10.28;60.31;96493.69;4218946;28;6478;-66
2022/04/19 05:50:04;;;;;;;;;;;;;;;10.41;60.17;96494.53;4218304;28;6429;-65
2022/04/19 05:52:06;;;;;;;;;;;;;;;10.22;62.13;96495.31;4218681;28;5673;-66
2022/04/19 05:54:13;;;;;;;;;;;;;;;10.14;62.03;96506.03;4218395;28;5660;-66
2022/04/19 05:56:15;;;;;;;;;;;;;;;10.06;62.48;96500.91;4218423;28;5779;-66
2022/04/19 05:58:17;;;;;;;;;;;;;;;10.33;60.92;96502.66;4216033;28;5656;-66
2022/04/19 06:00:19;;;;;;;;;;;;;;;10.38;61.18;96507.34;4210854;28;5129;-66
2022/04/19 06:04:54;;;;;;;;;;;;;;;10.42;60.72;96500.69;4215866;28;5874;-66
2022/04/19 06:06:55;;;;;;;;;;;;;;;10.61;60.20;96494.59;4212723;28;5683;-65
2022/04/19 06:08:57;;;;;;;;;;;;;;;10.85;59.36;96501.16;4209461;28;5742;-66
2022/04/19 06:10:59;;;;;;;;;;;;;;;11.06;59.04;96494.84;4217480;28;5619;-65
2022/04/19 06:13:00;;;;;;;;;;;;;;;11.22;58.28;96499.75;4216504;28;5620;-65
2022/04/19 06:15:02;;;;;;;;;;;;;;;11.45;58.12;96496.69;4217111;28;5672;-66
2022/04/19 06:17:05;;;;;;;;;;;;;;;11.72;57.34;96493.97;4213391;28;5898;-66
2022/04/19 06:19:06;;;;;;;;;;;;;;;11.98;56.87;96490.47;4201535;28;5701;-67
2022/04/19 06:21:08;;;;;;;;;;;;;;;12.29;56.16;96492.41;4217002;28;5688;-66
2022/04/19 06:23:11;;;;;;;;;;;;;;;12.48;55.69;96494.16;4218020;28;5676;-66
2022/04/19 06:25:13;;;;;;;;;;;;;;;12.65;54.87;96487.28;4213365;28;5784;-66
2022/04/19 06:27:14;;;;;;;;;;;;;;;12.82;54.83;96493.72;4216194;28;5796;-65
2022/04/19 06:29:16;;;;;;;;;;;;;;;12.81;54.24;96491.28;4225704;27;5676;-65
2022/04/19 06:31:18;;;;;;;;;;;;;;;12.92;54.27;96495.09;4217208;28;5772;-66
2022/04/19 06:33:24;;;;;;;;;;;;;;;13.00;53.71;96500.94;4217955;28;5794;-65
2022/04/19 06:35:26;;;;;;;;;;;;;;;13.02;53.06;96490.09;4217916;28;6714;-66
2022/04/19 06:37:29;;;;;;;;;;;;;;;12.76;52.93;96497.22;4218188;28;5687;-65
2022/04/19 06:39:30;;;;;;;;;;;;;;;12.51;53.31;96496.38;4216929;28;5628;-65
2022/04/19 06:41:32;;;;;;;;;;;;;;;12.35;53.37;96496.88;4217648;28;5680;-65
2022/04/19 06:43:34;;;;;;;;;;;;;;;12.11;54.71;96501.81;4208643;28;5781;-65
2022/04/19 06:45:35;;;;;;;;;;;;;;;12.04;54.27;96498.41;4203969;28;5695;-65
2022/04/19 06:47:38;;;;;;;;;;;;;;;11.87;54.57;96499.88;4217155;28;5672;-65
2022/04/19 06:49:40;;;;;;;;;;;;;;;11.85;53.58;96492.13;4217655;28;6309;-66
2022/04/19 06:51:42;;;;;;;;;;;;;;;11.77;53.41;96504.75;4199894;28;5737;-66
2022/04/19 06:53:43;;;;;;;;;;;;;;;11.71;53.81;96501.13;4217774;28;5687;-68
2022/04/19 06:55:45;;;;;;;;;;;;;;;11.66;53.72;96492.97;4217478;28;5771;-65
2022/04/19 06:57:47;;;;;;;;;;;;;;;11.56;54.23;96504.00;4217895;28;5755;-65
2022/04/19 06:59:49;;;;;;;;;;;;;;;11.47;54.41;96496.47;4216343;28;6281;-65
2022/04/19 07:01:51;;;;;;;;;;;;;;;11.51;54.79;96493.19;4218000;28;5689;-66
2022/04/19 07:03:53;;;;;;;;;;;;;;;11.52;54.57;96499.31;4216423;28;5644;-66
2022/04/19 07:05:57;;;;;;;;;;;;;;;11.31;55.39;96489.75;4215970;28;5600;-65
2022/04/19 07:07:59;;;;;;;;;;;;;;;11.45;55.07;96488.75;4214369;28;5732;-66
2022/04/19 07:10:00;;;;;;;;;;;;;;;11.36;55.49;96489.97;4231250;28;5727;-65
2022/04/19 07:12:02;;;;;;;;;;;;;;;11.18;57.03;96495.88;4234610;28;5700;-65
2022/04/19 07:14:04;;;;;;;;;;;;;;;11.13;59.15;96485.09;4234283;28;6528;-65
2022/04/19 07:16:06;;;;;;;;;;;;;;;11.35;57.77;96485.69;4209532;28;5766;-64
2022/04/19 07:18:07;;;;;;;;;;;;;;;11.34;59.65;96489.38;4221235;28;5707;-65
2022/04/19 07:27:10;;;;;;;;;;;;;;;11.30;58.86;96472.25;4226584;27;5823;-66
2022/04/19 07:29:12;;;;;;;;;;;;;;;11.38;58.45;96486.09;4233057;28;5778;-65
2022/04/19 07:31:14;;;;;;;;;;;;;;;11.47;58.64;96473.47;4211726;28;6293;-66
2022/04/19 07:33:16;;;;;;;;;;;;;;;11.51;58.25;96474.66;4209718;28;5821;-65
2022/04/19 07:35:18;;;;;;;;;;;;;;;11.53;58.51;96471.81;4216875;28;5865;-66
2022/04/19 07:37:20;;;;;;;;;;;;;;;11.53;57.08;96472.63;4218757;27;5699;-65
2022/04/19 07:39:21;;;;;;;;;;;;;;;11.51;57.40;96468.56;4204003;28;6429;-65
2022/04/19 07:41:26;;;;;;;;;;;;;;;11.49;57.32;96467.97;4223965;28;6371;-65
2022/04/19 07:43:28;;;;;;;;;;;;;;;11.57;57.13;96463.28;4216106;28;5632;-65
2022/04/19 07:45:30;;;;;;;;;;;;;;;11.56;57.44;96464.28;4226729;28;5088;-65
2022/04/19 07:47:32;;;;;;;;;;;;;;;11.39;57.49;96457.78;4224587;27;5854;-65
2022/04/19 07:49:34;;;;;;;;;;;;;;;11.49;58.10;96465.31;4227449;28;5758;-65
2022/04/19 07:51:36;;;;;;;;;;;;;;;11.48;57.42;96464.50;4218834;27;5802;-65
2022/04/19 07:53:38;;;;;;;;;;;;;;;11.47;57.30;96462.88;4222646;28;5710;-65
2022/04/19 07:55:40;;;;;;;;;;;;;;;11.54;56.52;96457.56;4228678;27;5908;-66
2022/04/19 07:57:42;;;;;;;;;;;;;;;11.54;56.45;96457.56;4222042;27;5735;-66
2022/04/19 07:59:47;;;;;;;;;;;;;;;11.54;56.58;96461.00;4227089;28;5684;-66
2022/04/19 08:01:48;;;;;;;;;;;;;;;11.53;56.77;96459.38;4227386;27;5866;-66
2022/04/19 08:03:50;;;;;;;;;;;;;;;11.45;56.71;96454.34;4219460;28;6492;-66
2022/04/19 08:05:52;;;;;;;;;;;;;;;11.53;55.93;96462.03;4216156;27;5832;-66
2022/04/19 08:07:57;;;;;;;;;;;;;;;11.41;56.74;96458.41;4206510;28;5735;-66
2022/04/19 08:09:59;;;;;;;;;;;;;;;11.40;56.79;96456.78;4230204;28;5797;-67
2022/04/19 08:12:01;;;;;;;;;;;;;;;11.34;57.64;96454.97;4225400;28;5785;-66
2022/04/19 08:14:02;;;;;;;;;;;;;;;11.34;56.84;96452.31;4230838;28;6576;-66
2022/04/19 08:16:05;;;;;;;;;;;;;;;11.19;57.43;96454.34;4230835;28;5171;-66
2022/04/19 08:18:11;;;;;;;;;;;;;;;11.38;56.68;96453.53;4212901;28;5635;-67
2022/04/19 08:20:13;;;;;;;;;;;;;;;11.41;56.12;96447.00;4216809;28;5856;-66
2022/04/19 08:22:16;;;;;;;;;;;;;;;11.43;55.87;96455.53;4224505;28;5903;-66
2022/04/19 08:24:18;;;;;;;;;;;;;;;11.46;55.21;96448.03;4196366;28;5742;-66
2022/04/19 08:26:20;;;;;;;;;;;;;;;11.49;55.25;96450.25;4228917;28;5968;-67
2022/04/19 08:28:22;;;;;;;;;;;;;;;11.52;55.30;96447.19;4212779;28;7706;-66
2022/04/19 08:30:23;;;;;;;;;;;;;;;11.55;54.16;96444.13;4224709;28;5827;-66
2022/04/19 08:32:25;;;;;;;;;;;;;;;11.55;54.24;96446.78;4214049;27;5956;-66
2022/04/19 08:34:27;;;;;;;;;;;;;;;11.58;53.68;96443.72;4198103;28;5820;-67
2022/04/19 08:36:28;;;;;;;;;;;;;;;11.63;53.69;96446.53;4217221;27;6500;-66
2022/04/19 08:38:31;;;;;;;;;;;;;;;11.56;54.00;96448.41;4230743;28;5909;-66
2022/04/19 08:40:33;;;;;;;;;;;;;;;11.65;54.50;96449.78;4212448;28;7525;-66
2022/04/19 08:42:37;;;;;;;;;;;;;;;11.77;53.97;96436.72;4230223;28;6465;-66
2022/04/19 08:44:38;;;;;;;;;;;;;;;11.81;53.71;96443.28;4231232;28;5782;-67
2022/04/19 08:46:40;;;;;;;;;;;;;;;11.84;53.56;96439.38;4233146;27;5863;-68
2022/04/19 08:48:44;;;;;;;;;;;;;;;11.89;53.43;96439.56;4223151;27;5849;-66
2022/04/19 08:50:49;;;;;;;;;;;;;;;11.91;53.23;96434.88;4220548;28;5857;-67
2022/04/19 08:57:29;;;;;;;;;;;;;;;11.97;53.08;96434.03;4234159;28;5805;-67
2022/04/19 08:57:35;;;;;;;;;;;;;;;12.04;52.73;96429.53;4237821;27;5790;-67
2022/04/19 08:59:36;;;;;;;;;;;;;;;12.10;52.98;96425.19;4233413;28;5732;-66
2022/04/19 09:01:39;;;;;;;;;;;;;;;12.15;52.97;96426.22;4218051;28;5809;-66
2022/04/19 09:03:42;;;;;;;;;;;;;;;12.29;51.53;96426.13;4235066;27;5806;-66
2022/04/19 09:05:51;;;;;;;;;;;;;;;12.30;51.12;96419.81;4233349;28;5821;-66
2022/04/19 09:07:57;;;;;;;;;;;;;;;12.36;50.92;96424.28;4232508;27;5798;-68
2022/04/19 09:10:00;;;;;;;;;;;;;;;12.39;50.94;96423.84;4231321;28;5892;-67
2022/04/19 09:12:12;;;;;;;;;;;;;;;12.22;50.54;96420.84;4216761;28;5725;-67
2022/04/19 09:14:15;;;;;;;;;;;;;;;12.29;49.64;96423.47;4227672;27;5893;-66
2022/04/19 09:16:24;;;;;;;;;;;;;;;12.40;51.02;96420.97;4215368;28;5730;-67
2022/04/19 09:18:32;;;;;;;;;;;;;;;12.56;50.65;96424.13;4211292;28;5792;-67
2022/04/19 09:20:33;;;;;;;;;;;;;;;12.54;49.18;96421.69;4216928;28;5702;-67
2022/04/19 09:22:37;;;;;;;;;;;;;;;12.51;49.79;96417.63;4233142;27;5789;-66
2022/04/19 09:24:38;;;;;;;;;;;;;;;12.51;49.22;96416.81;4227603;27;5798;-66
2022/04/19 09:26:50;;;;;;;;;;;;;;;12.39;50.05;96410.59;4226541;28;5872;-66
2022/04/19 09:29:24;;;;;;;;;;;;;;;12.51;49.32;96411.53;4198311;28;5810;-66
2022/04/19 09:31:33;;;;;;;;;;;;;;;12.35;49.38;96414.69;4222182;28;5822;-67
2022/04/19 09:33:35;;;;;;;;;;;;;;;12.36;49.97;96408.38;4216513;28;5878;-67
2022/04/19 09:35:40;;;;;;;;;;;;;;;12.43;50.58;96407.28;4216497;27;5867;-66
2022/04/19 09:37:48;;;;;;;;;;;;;;;12.39;48.13;96402.63;4198140;28;5737;-66
2022/04/19 09:39:52;;;;;;;;;;;;;;;12.45;50.08;96396.44;4216156;28;5813;-66
2022/04/19 09:42:04;;;;;;;;;;;;;;;12.59;49.77;96397.19;4216215;28;5937;-67
2022/04/19 09:44:10;;;;;;;;;;;;;;;12.66;49.16;96393.44;4230535;28;5798;-66
2022/04/19 09:46:14;;;;;;;;;;;;;;;12.74;49.72;96395.84;4232412;28;5887;-66
2022/04/19 09:48:20;;;;;;;;;;;;;;;12.71;50.20;96390.16;4212054;28;5827;-67
2022/04/19 09:50:22;;;;;;;;;;;;;;;12.76;49.90;96385.81;4198104;28;5818;-66
2022/04/19 09:52:23;;;;;;;;;;;;;;;12.83;50.72;96380.47;4216300;28;5716;-67
2022/04/19 09:54:25;;;;;;;;;;;;;;;12.94;50.41;96381.63;4231030;28;5782;-66
2022/04/19 09:56:36;;;;;;;;;;;;;;;12.98;50.14;96383.59;4232905;28;5778;-67
2022/04/19 09:58:49;;;;;;;;;;;;;;;13.03;48.24;96375.00;4232147;28;5910;-66
2022/04/19 10:00:53;;;;;;;;;;;;;;;12.80;48.00;96375.63;4231825;27;5786;-66
2022/04/19 10:09:57;;;;;;;;;;;;;;;12.96;49.00;96363.63;4198489;28;5828;-66
2022/04/19 10:12:00;;;;;;;;;;;;;;;13.03;48.50;96364.38;4197444;28;5841;-66
2022/04/19 10:14:04;;;;;;;;;;;;;;;13.04;48.20;96360.69;4198848;28;5809;-67
2022/04/19 10:16:11;;;;;;;;;;;;;;;13.00;48.34;96364.81;4196755;28;5820;-67
2022/04/19 10:18:13;;;;;;;;;;;;;;;13.04;48.98;96364.16;4195498;28;5800;-68
2022/04/19 10:20:15;;;;;;;;;;;;;;;12.97;49.00;96357.28;4199128;28;5905;-66
2022/04/19 10:22:17;;;;;;;;;;;;;;;12.75;49.27;96355.03;4200580;28;6436;-67
2022/04/19 10:24:20;;;;;;;;;;;;;;;12.95;49.37;96356.69;4201186;28;5693;-67
2022/04/19 10:26:24;;;;;;;;;;;;;;;13.10;49.26;96357.16;4201121;28;5718;-67
2022/04/19 10:28:27;;;;;;;;;;;;;;;13.21;48.09;96353.81;4198908;28;5800;-66
2022/04/19 10:30:33;;;;;;;;;;;;;;;13.22;47.45;96352.78;4184652;28;5711;-67
2022/04/19 10:32:35;;;;;;;;;;;;;;;13.33;47.81;96346.72;4184903;28;5818;-67
2022/04/19 10:34:39;;;;;;;;;;;;;;;13.30;47.52;96351.69;4195798;28;5832;-69
2022/04/19 10:36:42;;;;;;;;;;;;;;;13.10;46.67;96346.53;4200253;28;5689;-67
2022/04/19 10:38:46;;;;;;;;;;;;;;;13.16;47.77;96339.56;4185061;28;5738;-69
2022/04/19 10:40:51;;;;;;;;;;;;;;;13.20;48.18;96346.88;4191485;28;5731;-65
2022/04/19 10:43:12;;;;;;;;;;;;;;;13.34;47.77;96347.53;4195899;28;5858;-67
2022/04/19 10:45:14;;;;;;;;;;;;;;;13.40;47.92;96350.13;4190068;28;5694;-65
2022/04/19 10:47:17;;;;;;;;;;;;;;;13.43;48.78;96356.03;4199596;28;6987;-65
2022/04/19 10:49:25;;;;;;;;;;;;;;;13.42;47.96;96347.25;4193590;28;6401;-69
2022/04/19 10:51:27;;;;;;;;;;;;;;;13.46;48.71;96347.63;4184798;28;5818;-67
2022/04/19 10:53:33;;;;;;;;;;;;;;;13.43;48.47;96340.09;4190652;28;7764;-68
2022/04/19 10:55:57;;;;;;;;;;;;;;;13.51;47.35;96331.84;4199031;28;5701;-66
2022/04/19 11:00:27;;;;;;;;;;;;;;;13.64;46.07;96335.16;4200269;28;5690;-68
2022/04/19 11:03:05;;;;;;;;;;;;;;;13.66;46.48;96338.38;4198267;28;5686;-65
2022/04/19 11:05:34;;;;;;;;;;;;;;;13.72;46.84;96335.88;4182748;28;5767;-65
2022/04/19 11:07:42;;;;;;;;;;;;;;;13.80;46.67;96325.75;4205417;28;5705;-65
2022/04/19 11:10:00;;;;;;;;;;;;;;;13.85;47.00;96325.09;4190195;28;5947;-65
2022/04/19 11:12:12;;;;;;;;;;;;;;;13.87;46.86;96323.00;4195644;28;5739;-66
2022/04/19 11:14:18;;;;;;;;;;;;;;;13.91;45.98;96313.53;4199355;28;5825;-66
2022/04/19 11:16:35;;;;;;;;;;;;;;;13.92;45.29;96308.00;4197294;28;5700;-67
2022/04/19 11:18:37;;;;;;;;;;;;;;;13.94;46.34;96300.63;4197627;28;5692;-66
2022/04/19 11:20:59;;;;;;;;;;;;;;;14.01;43.80;96295.19;4200686;28;5772;-66
2022/04/19 11:23:19;;;;;;;;;;;;;;;14.06;44.12;96291.88;4201035;28;5705;-67
2022/04/19 11:25:40;;;;;;;;;;;;;;;14.19;43.39;96291.69;4169347;28;5793;-66
2022/04/19 11:27:54;;;;;;;;;;;;;;;14.21;43.31;96290.41;4200155;28;6338;-66
2022/04/19 11:29:56;;;;;;;;;;;;;;;14.37;43.20;96286.25;4198622;28;5693;-66
2022/04/19 11:31:57;;;;;;;;;;;;;;;14.46;44.13;96286.78;4191688;28;6411;-66
2022/04/19 11:34:00;;;;;;;;;;;;;;;14.53;44.28;96290.97;4192934;28;5701;-66
2022/04/19 11:36:03;;;;;;;;;;;;;;;14.54;42.24;96278.47;4200333;28;6404;-66
2022/04/19 11:38:10;;;;;;;;;;;;;;;14.48;43.19;96274.06;4198229;28;5767;-66
2022/04/19 11:47:46;;;;;;;;;;;;;;;14.68;43.77;96271.06;4198982;28;5692;-65
2022/04/19 11:49:48;;;;;;;;;;;;;;;14.71;44.11;96257.28;4199509;28;5701;-65
2022/04/19 11:51:58;;;;;;;;;;;;;;;14.75;43.89;96261.13;4198834;28;5739;-66
2022/04/19 11:53:59;;;;;;;;;;;;;;;14.74;43.58;96256.84;4183826;28;6612;-66
2022/04/19 11:56:01;;;;;;;;;;;;;;;14.72;42.75;96253.59;4196098;28;5824;-66
2022/04/19 11:58:09;;;;;;;;;;;;;;;14.74;42.73;96251.53;4194164;28;5711;-66
2022/04/19 12:00:16;;;;;;;;;;;;;;;14.89;42.98;96251.03;4170202;28;6440;-66
2022/04/19 12:02:19;;;;;;;;;;;;;;;14.92;41.42;96254.03;4190267;28;5804;-66
2022/04/19 12:04:25;;;;;;;;;;;;;;;14.91;40.17;96251.63;4200255;28;5767;-66
2022/04/19 12:06:27;;;;;;;;;;;;;;;14.95;40.63;96258.91;4200026;28;5861;-66
2022/04/19 12:08:33;;;;;;;;;;;;;;;15.00;41.27;96253.69;4205812;28;5108;-65
2022/04/19 12:10:35;;;;;;;;;;;;;;;14.99;43.00;96248.59;4216847;28;5767;-66
2022/04/19 12:12:37;;;;;;;;;;;;;;;15.02;43.33;96248.13;4216841;28;5814;-66
2022/04/19 12:14:39;;;;;;;;;;;;;;;15.08;43.68;96245.34;4215676;28;5837;-67
2022/04/19 12:16:54;;;;;;;;;;;;;;;15.12;43.07;96241.16;4214661;28;6294;-66
2022/04/19 12:19:02;;;;;;;;;;;;;;;15.07;41.66;96234.94;4210069;28;5748;-65
2022/04/19 12:21:06;;;;;;;;;;;;;;;14.85;42.82;96232.09;4202420;28;5631;-65
2022/04/19 12:23:19;;;;;;;;;;;;;;;15.02;42.98;96227.66;4212280;28;5925;-66
2022/04/19 12:25:23;;;;;;;;;;;;;;;15.11;41.35;96231.56;4212088;28;5676;-65
2022/04/19 12:27:29;;;;;;;;;;;;;;;15.05;41.40;96223.69;4219953;28;5784;-67
2022/04/19 12:29:37;;;;;;;;;;;;;;;15.11;41.39;96225.44;4219809;28;5683;-65
2022/04/19 12:31:41;;;;;;;;;;;;;;;15.21;41.82;96219.50;4211575;28;5954;-65
2022/04/19 12:33:54;;;;;;;;;;;;;;;15.29;41.95;96217.28;4216815;28;5703;-65
2022/04/19 12:35:58;;;;;;;;;;;;;;;15.37;41.12;96214.22;4219527;28;5658;-65
2022/04/19 12:38:17;;;;;;;;;;;;;;;15.44;41.18;96216.75;4220230;28;5751;-66
2022/04/19 12:40:26;;;;;;;;;;;;;;;15.50;40.69;96218.47;4220387;28;5691;-65
2022/04/19 12:42:28;;;;;;;;;;;;;;;15.57;40.81;96208.47;4219613;28;5703;-65
2022/04/19 12:44:29;;;;;;;;;;;;;;;15.61;40.56;96204.31;4219623;28;5744;-65
2022/04/19 12:46:31;;;;;;;;;;;;;;;15.67;39.82;96206.03;4218575;28;5642;-66
2022/04/19 12:48:33;;;;;;;;;;;;;;;15.67;39.29;96203.38;4222488;28;5743;-65
2022/04/19 12:50:35;;;;;;;;;;;;;;;15.68;38.81;96199.66;4227476;28;5808;-66
2022/04/19 12:52:37;;;;;;;;;;;;;;;15.55;37.74;96197.25;4211550;28;5724;-65
2022/04/19 12:54:41;;;;;;;;;;;;;;;15.52;38.25;96200.41;4219653;28;5643;-67
2022/04/19 12:57:13;;;;;;;;;;;;;;;15.57;38.42;96199.69;4219861;28;5700;-66
2022/04/19 12:59:14;;;;;;;;;;;;;;;15.61;38.76;96193.66;4219577;28;5876;-65
2022/04/19 13:01:16;;;;;;;;;;;;;;;15.54;38.27;96185.00;4210100;28;5678;-65
2022/04/19 13:03:18;;;;;;;;;;;;;;;15.56;38.19;96182.88;4214119;28;5712;-65
2022/04/19 13:05:20;;;;;;;;;;;;;;;15.57;38.69;96194.34;4220746;28;5672;-65
2022/04/19 13:12:17;;;;;;;;;;;;;;;15.77;39.10;96188.63;4218281;28;5679;-66
2022/04/19 13:14:19;;;;;;;;;;;;;;;15.80;38.23;96188.13;4219043;28;5681;-65
2022/04/19 13:16:21;;;;;;;;;;;;;;;15.85;39.11;96186.34;4216738;28;5616;-66
2022/04/19 13:18:25;;;;;;;;;;;;;;;15.92;38.59;96183.53;4217674;28;5814;-66
2022/04/19 13:20:27;;;;;;;;;;;;;;;15.93;39.63;96185.16;4214282;28;5787;-66
2022/04/19 13:22:29;;;;;;;;;;;;;;;15.89;39.10;96184.03;4216534;28;5782;-66
2022/04/19 13:24:31;;;;;;;;;;;;;;;15.91;38.55;96182.72;4216511;28;5782;-66
2022/04/19 13:26:34;;;;;;;;;;;;;;;15.99;38.36;96189.53;4197364;28;5885;-66
2022/04/19 13:28:41;;;;;;;;;;;;;;;16.11;36.33;96184.91;4216388;28;5811;-66
2022/04/19 13:30:43;;;;;;;;;;;;;;;16.01;38.28;96176.75;4205513;28;5745;-66
2022/04/19 13:32:46;;;;;;;;;;;;;;;16.04;37.77;96175.47;4199614;28;5800;-65
2022/04/19 13:34:48;;;;;;;;;;;;;;;16.02;38.36;96165.03;4199744;28;5800;-66
2022/04/19 13:36:51;;;;;;;;;;;;;;;16.04;38.02;96165.59;4210272;28;5782;-65
2022/04/19 13:38:52;;;;;;;;;;;;;;;16.02;37.55;96162.38;4216919;28;5767;-66
2022/04/19 13:40:54;;;;;;;;;;;;;;;16.04;38.22;96154.94;4220051;28;5767;-66
2022/04/19 13:42:55;;;;;;;;;;;;;;;16.09;37.10;96156.91;4216089;28;6457;-66
2022/04/19 13:44:57;;;;;;;;;;;;;;;16.09;37.68;96156.91;4202918;28;7741;-66
2022/04/19 13:46:59;;;;;;;;;;;;;;;16.03;36.53;96156.00;4215074;28;5821;-66
2022/04/19 13:49:08;;;;;;;;;;;;;;;16.09;37.00;96155.03;4216419;28;5802;-65
2022/04/19 13:51:10;;;;;;;;;;;;;;;16.08;36.70;96150.72;4216299;28;5794;-66
2022/04/19 13:53:12;;;;;;;;;;;;;;;16.09;37.09;96148.91;4216227;28;5778;-66
2022/04/19 13:55:18;;;;;;;;;;;;;;;16.04;37.65;96149.59;4197470;28;5678;-66
2022/04/19 13:57:20;;;;;;;;;;;;;;;16.10;37.75;96142.50;4215830;28;5759;-65
2022/04/19 13:59:22;;;;;;;;;;;;;;;16.21;37.65;96141.59;4212130;28;5849;-65
2022/04/19 14:01:26;;;;;;;;;;;;;;;16.27;36.88;96143.28;4211303;28;7537;-65
2022/04/19 14:03:28;;;;;;;;;;;;;;;16.30;36.53;96143.59;4204499;28;6885;-65
2022/04/19 14:05:31;;;;;;;;;;;;;;;16.34;36.71;96132.47;4204627;28;5775;-65
2022/04/19 14:07:33;;;;;;;;;;;;;;;16.38;37.57;96138.91;4215601;28;5767;-66
2022/04/19 14:09:36;;;;;;;;;;;;;;;16.39;35.67;96140.53;4232032;28;6540;-65
2022/04/19 14:11:38;;;;;;;;;;;;;;;16.46;35.36;96133.16;4231625;27;5846;-65
2022/04/19 14:13:39;;;;;;;;;;;;;;;16.52;35.56;96134.81;4232905;28;5789;-65
2022/04/19 14:15:42;;;;;;;;;;;;;;;16.60;34.56;96137.88;4205257;28;5757;-65
2022/04/19 14:17:45;;;;;;;;;;;;;;;16.65;34.59;96128.31;4217015;28;5835;-65
2022/04/19 14:19:46;;;;;;;;;;;;;;;16.62;34.25;96129.63;4231975;28;5809;-65
2022/04/19 14:21:48;;;;;;;;;;;;;;;16.60;34.10;96129.88;4225594;28;5862;-65
2022/04/19 14:23:50;;;;;;;;;;;;;;;16.56;34.46;96127.97;4203536;28;5766;-65
2022/04/19 14:25:51;;;;;;;;;;;;;;;16.45;34.79;96132.34;4205316;28;5796;-65
2022/04/19 14:27:53;;;;;;;;;;;;;;;16.38;33.51;96134.38;4217985;28;5839;-65
2022/04/19 14:34:36;;;;;;;;;;;;;;;16.45;35.89;96136.88;4215631;28;5835;-65
2022/04/19 14:36:37;;;;;;;;;;;;;;;16.45;35.13;96131.53;4215244;28;5926;-65
2022/04/19 14:38:39;;;;;;;;;;;;;;;16.51;34.45;96134.03;4215344;27;5804;-64
2022/04/19 14:40:41;;;;;;;;;;;;;;;16.51;32.70;96134.03;4203748;28;5742;-65
2022/04/19 14:42:44;;;;;;;;;;;;;;;16.55;32.01;96129.81;4202325;28;5757;-65
2022/04/19 14:44:46;;;;;;;;;;;;;;;16.53;31.33;96121.22;4219935;28;6652;-65
2022/04/19 14:46:48;;;;;;;;;;;;;;;16.58;30.86;96123.19;4219536;28;5886;-64
2022/04/19 14:48:50;;;;;;;;;;;;;;;16.53;31.07;96120.44;4199921;28;5757;-65
2022/04/19 14:53:12;;;;;;;;;;;;;;;16.53;30.50;96115.91;4222730;27;5902;-65
2022/04/19 14:55:15;;;;;;;;;;;;;;;16.54;30.43;96116.72;4211313;28;5707;-66
2022/04/19 14:57:18;;;;;;;;;;;;;;;16.58;29.68;96107.16;4225666;27;5916;-65
2022/04/19 14:59:20;;;;;;;;;;;;;;;16.62;30.26;96108.28;4221223;28;5815;-65
2022/04/19 15:01:21;;;;;;;;;;;;;;;16.75;28.56;96110.59;4213306;28;5795;-65
2022/04/19 15:03:23;;;;;;;;;;;;;;;16.87;29.41;96108.66;4217468;28;5875;-66
2022/04/19 15:05:25;;;;;;;;;;;;;;;16.87;29.32;96103.31;4222513;28;5830;-65
2022/04/19 15:07:27;;;;;;;;;;;;;;;16.93;29.42;96093.47;4220194;28;5816;-65
2022/04/19 15:09:29;;;;;;;;;;;;;;;17.09;27.44;96092.56;4216118;28;5774;-66
2022/04/19 15:11:32;;;;;;;;;;;;;;;17.12;27.91;96085.94;4206094;28;5830;-65
2022/04/19 15:13:34;;;;;;;;;;;;;;;17.09;27.17;96089.09;4203320;28;6594;-66
2022/04/19 15:15:36;;;;;;;;;;;;;;;17.05;28.13;96090.66;4200659;28;5831;-66
2022/04/19 15:17:37;;;;;;;;;;;;;;;17.07;27.65;96084.00;4204749;28;5779;-65
2022/04/19 15:19:40;;;;;;;;;;;;;;;17.09;29.02;96086.44;4208438;28;5711;-66
2022/04/19 15:21:42;;;;;;;;;;;;;;;17.12;28.40;96077.94;4200635;28;5908;-67
2022/04/19 15:23:44;;;;;;;;;;;;;;;17.15;28.22;96082.75;4204593;28;6526;-67
2022/04/19 15:25:46;;;;;;;;;;;;;;;17.32;27.00;96080.78;4197191;28;5769;-65
2022/04/19 15:27:48;;;;;;;;;;;;;;;17.30;28.01;96080.22;4197919;28;5752;-65
2022/04/19 15:29:50;;;;;;;;;;;;;;;17.33;26.48;96071.75;4198432;28;5796;-66
2022/04/19 15:31:53;;;;;;;;;;;;;;;17.31;26.93;96068.47;4203198;28;5784;-66
2022/04/19 15:33:55;;;;;;;;;;;;;;;17.48;24.80;96062.25;4206314;28;5780;-66
2022/04/19 15:35:56;;;;;;;;;;;;;;;17.50;25.72;96068.13;4214711;28;5692;-64
2022/04/19 15:37:58;;;;;;;;;;;;;;;17.48;26.54;96059.56;4203496;28;5752;-65
2022/04/19 15:40:00;;;;;;;;;;;;;;;17.47;26.68;96061.44;4212347;28;5676;-66
2022/04/19 15:42:02;;;;;;;;;;;;;;;17.46;26.99;96055.28;4204314;28;5693;-65
2022/04/19 15:44:04;;;;;;;;;;;;;;;17.45;27.29;96052.88;4201083;28;5693;-65
2022/04/19 15:46:07;;;;;;;;;;;;;;;17.45;27.21;96053.69;4204610;28;5767;-65
2022/04/19 15:48:11;;;;;;;;;;;;;;;17.46;27.01;96054.47;4199866;28;5654;-65